Time;durP1;ratioP1;P1;durP2;ratioP2;P2;SDS_P1;SDS_P2;PMS_P1;PMS_P2;Temp;Humidity;BMP_temperature;BMP_pressure;BME280_temperature;BME280_humidity;BME280_pressure;Samples;Min_cycle;Max_cycle;Signal;HPM_P1;HPM_P2
2022/11/27 00:00:10;;;;;;;2.63;2.42;;;5.20;99.90;;;;;;5043017;28;20207;-75
2022/11/27 00:02:37;;;;;;;2.75;2.60;;;5.10;99.90;;;;;;5045996;28;20230;-77
2022/11/27 00:05:05;;;;;;;2.60;2.40;;;5.10;99.90;;;;;;5044510;28;20206;-77
2022/11/27 00:07:33;;;;;;;2.80;2.67;;;5.10;99.90;;;;;;5042511;28;20226;-78
2022/11/27 00:10:00;;;;;;;2.60;2.50;;;5.00;99.90;;;;;;5048275;28;20195;-76
2022/11/27 00:12:30;;;;;;;2.35;2.25;;;5.00;99.90;;;;;;5044542;28;20217;-80
2022/11/27 00:14:58;;;;;;;2.80;2.63;;;5.00;99.90;;;;;;5047908;28;20572;-78
2022/11/27 00:17:25;;;;;;;2.50;2.40;;;5.00;99.90;;;;;;5044405;28;20225;-75
2022/11/27 00:19:52;;;;;;;2.60;2.50;;;5.00;99.90;;;;;;5053872;28;20195;-76
2022/11/27 00:22:19;;;;;;;2.70;2.60;;;5.00;99.90;;;;;;5051276;28;20235;-77
2022/11/27 00:24:47;;;;;;;3.00;2.80;;;5.00;99.90;;;;;;5048048;28;20199;-77
2022/11/27 00:27:14;;;;;;;2.53;2.42;;;5.00;99.90;;;;;;5048652;28;20218;-80
2022/11/27 00:29:43;;;;;;;2.50;2.40;;;5.00;99.90;;;;;;5051284;28;20190;-75
2022/11/27 00:32:11;;;;;;;2.38;2.28;;;5.00;99.90;;;;;;5051915;28;20230;-79
2022/11/27 00:34:38;;;;;;;2.55;2.45;;;4.90;99.90;;;;;;5049417;28;20194;-75
2022/11/27 00:37:06;;;;;;;2.92;2.67;;;4.90;99.90;;;;;;5051352;28;20214;-78
2022/11/27 00:39:33;;;;;;;2.50;2.40;;;4.90;99.90;;;;;;5050983;28;20191;-77
2022/11/27 00:42:01;;;;;;;2.40;2.30;;;4.80;99.90;;;;;;5051842;28;20218;-76
2022/11/27 00:44:28;;;;;;;2.70;2.50;;;4.80;99.90;;;;;;5048617;28;20195;-77
2022/11/27 00:46:57;;;;;;;2.30;2.20;;;4.80;99.90;;;;;;5052715;28;20707;-80
2022/11/27 00:49:24;;;;;;;2.80;2.60;;;4.70;99.90;;;;;;5053035;28;20298;-79
2022/11/27 00:51:52;;;;;;;2.83;2.63;;;4.70;99.90;;;;;;5050240;28;20285;-78
2022/11/27 00:54:19;;;;;;;2.58;2.45;;;4.70;99.90;;;;;;5055035;28;20206;-78
2022/11/27 00:56:46;;;;;;;3.03;2.72;;;4.70;99.90;;;;;;5053712;28;20237;-79
2022/11/27 00:59:14;;;;;;;2.72;2.53;;;4.70;99.90;;;;;;5057648;28;20198;-76
2022/11/27 01:01:43;;;;;;;2.65;2.55;;;4.70;99.90;;;;;;5048429;28;20219;-74
2022/11/27 01:04:15;;;;;;;2.58;2.47;;;4.70;99.90;;;;;;5051638;28;20203;-77
2022/11/27 01:06:43;;;;;;;2.47;2.38;;;4.70;99.90;;;;;;5043614;28;20219;-80
2022/11/27 01:09:12;;;;;;;2.45;2.35;;;4.60;99.90;;;;;;5048496;28;20229;-79
2022/11/27 01:11:40;;;;;;;2.80;2.60;;;4.60;99.90;;;;;;5051345;28;20696;-82
2022/11/27 01:14:12;;;;;;;2.58;2.47;;;4.60;99.90;;;;;;5047751;28;20191;-78
2022/11/27 01:16:40;;;;;;;2.70;2.60;;;4.50;99.90;;;;;;5052421;28;20581;-79
2022/11/27 01:19:09;;;;;;;2.60;2.50;;;4.50;99.90;;;;;;5050564;28;20195;-84
2022/11/27 01:21:39;;;;;;;2.75;2.60;;;4.40;99.90;;;;;;5049873;28;20658;-79
2022/11/27 01:24:08;;;;;;;2.15;2.05;;;4.40;99.90;;;;;;5047567;28;20210;-77
2022/11/27 01:26:35;;;;;;;3.10;2.80;;;4.40;99.90;;;;;;5049440;28;20211;-77
2022/11/27 01:29:03;;;;;;;2.58;2.47;;;4.50;99.90;;;;;;5052013;28;20218;-77
2022/11/27 01:31:33;;;;;;;2.40;2.30;;;4.50;99.90;;;;;;5054342;28;20234;-73
2022/11/27 01:34:03;;;;;;;2.33;2.22;;;4.50;99.90;;;;;;5051750;28;20202;-76
2022/11/27 01:36:32;;;;;;;2.70;2.50;;;4.50;99.90;;;;;;5047001;28;20215;-74
2022/11/27 01:39:02;;;;;;;2.55;2.45;;;4.50;99.90;;;;;;5050060;28;20249;-75
2022/11/27 01:41:32;;;;;;;3.22;2.50;;;4.40;99.90;;;;;;5049569;28;20219;-74
2022/11/27 01:44:01;;;;;;;2.90;2.70;;;4.40;99.90;;;;;;5050927;28;20241;-76
2022/11/27 01:46:38;;;;;;;2.72;2.63;;;4.40;99.90;;;;;;5050242;28;20631;-78
2022/11/27 01:49:31;;;;;;;2.47;2.35;;;4.30;99.90;;;;;;5049447;28;20214;-75
2022/11/27 01:52:02;;;;;;;2.80;2.70;;;4.30;99.90;;;;;;5038994;28;20223;-75
2022/11/27 01:54:34;;;;;;;2.90;2.70;;;4.30;99.90;;;;;;5049014;28;20195;-75
2022/11/27 01:57:08;;;;;;;2.95;2.75;;;4.20;99.90;;;;;;5048110;28;20230;-76
2022/11/27 01:59:35;;;;;;;2.90;2.80;;;4.20;99.90;;;;;;5051131;28;20206;-77
2022/11/27 02:02:04;;;;;;;2.50;2.40;;;4.20;99.90;;;;;;5049131;28;20227;-76
2022/11/27 02:04:31;;;;;;;2.40;2.30;;;4.20;99.90;;;;;;5054295;28;20587;-75
2022/11/27 02:07:00;;;;;;;3.15;2.95;;;4.20;99.90;;;;;;5047307;28;20230;-77
2022/11/27 02:09:28;;;;;;;3.15;2.95;;;4.10;99.90;;;;;;5048940;28;20223;-80
2022/11/27 02:12:02;;;;;;;2.97;2.88;;;4.10;99.90;;;;;;5046652;28;20219;-78
2022/11/27 02:14:36;;;;;;;2.70;2.50;;;4.00;99.90;;;;;;5049993;28;20198;-76
2022/11/27 02:17:09;;;;;;;5.47;2.53;;;4.00;99.90;;;;;;5048333;28;20607;-79
2022/11/27 02:19:55;;;;;;;3.08;2.88;;;4.00;99.90;;;;;;5049250;28;20191;-78
2022/11/27 02:22:35;;;;;;;2.75;2.65;;;3.90;99.90;;;;;;5029807;28;20230;-79
2022/11/27 02:25:13;;;;;;;3.17;2.97;;;3.90;99.90;;;;;;5048973;28;20214;-78
2022/11/27 02:28:07;;;;;;;2.85;2.65;;;3.90;99.90;;;;;;5044831;28;20218;-84
2022/11/27 02:30:41;;;;;;;2.70;2.53;;;3.80;99.90;;;;;;5047535;28;20284;-76
2022/11/27 02:33:12;;;;;;;2.63;2.53;;;3.80;99.90;;;;;;5049010;28;20591;-78
2022/11/27 02:35:44;;;;;;;2.58;2.47;;;3.80;99.90;;;;;;5049146;28;20191;-83
2022/11/27 02:38:17;;;;;;;2.60;2.50;;;3.80;99.90;;;;;;5048590;28;20206;-79
2022/11/27 02:40:52;;;;;;;2.50;2.40;;;3.70;99.90;;;;;;5046988;28;20649;-78
2022/11/27 02:43:26;;;;;;;2.65;2.55;;;3.80;99.90;;;;;;5051724;28;20205;-77
2022/11/27 02:45:58;;;;;;;2.20;2.10;;;3.80;99.90;;;;;;5049006;28;20222;-82
2022/11/27 02:48:31;;;;;;;2.90;2.80;;;3.80;99.90;;;;;;5048970;28;20223;-80
2022/11/27 02:50:58;;;;;;;2.55;2.45;;;3.80;99.90;;;;;;5046626;28;20218;-76
2022/11/27 02:53:32;;;;;;;2.83;2.70;;;3.80;99.90;;;;;;5049457;28;20196;-78
2022/11/27 02:56:03;;;;;;;2.65;2.55;;;3.80;99.90;;;;;;5046534;28;20219;-78
2022/11/27 02:58:31;;;;;;;2.97;2.88;;;3.80;99.90;;;;;;5046752;28;20210;-80
2022/11/27 03:01:01;;;;;;;3.10;3.00;;;3.80;99.90;;;;;;5043587;28;20278;-77
2022/11/27 03:03:34;;;;;;;2.72;2.63;;;3.80;99.90;;;;;;5026751;28;20196;-74
2022/11/27 03:06:06;;;;;;;2.70;2.50;;;3.70;99.90;;;;;;5047484;28;20215;-78
2022/11/27 03:08:38;;;;;;;2.60;2.50;;;3.70;99.90;;;;;;5046890;28;20730;-77
2022/11/27 03:11:08;;;;;;;2.65;2.55;;;3.70;99.90;;;;;;5045679;28;20731;-79
2022/11/27 03:13:38;;;;;;;2.40;2.30;;;3.70;99.90;;;;;;5047684;28;20683;-78
2022/11/27 03:16:13;;;;;;;2.78;2.67;;;3.60;99.90;;;;;;5051239;28;20700;-77
2022/11/27 03:18:44;;;;;;;2.80;2.70;;;3.60;99.90;;;;;;5048221;28;20194;-82
2022/11/27 03:21:21;;;;;;;3.05;2.88;;;3.50;99.90;;;;;;5046671;28;20246;-80
2022/11/27 03:23:48;;;;;;;2.78;2.60;;;3.50;99.90;;;;;;5044393;28;20206;-83
2022/11/27 03:26:15;;;;;;;2.53;2.42;;;3.40;99.90;;;;;;5043534;28;20242;-82
2022/11/27 03:28:45;;;;;;;3.00;2.90;;;3.40;99.90;;;;;;5043550;28;20274;-77
2022/11/27 03:31:14;;;;;;;3.05;2.85;;;3.40;99.90;;;;;;5043166;28;20738;-78
2022/11/27 03:33:41;;;;;;;2.80;2.70;;;3.40;99.90;;;;;;5046972;28;20206;-80
2022/11/27 03:36:14;;;;;;;2.55;2.45;;;3.40;99.90;;;;;;5044611;28;20214;-82
2022/11/27 03:38:44;;;;;;;3.22;3.05;;;3.40;99.90;;;;;;5028599;28;20201;-81
2022/11/27 03:41:19;;;;;;;3.17;2.97;;;3.40;99.90;;;;;;5047338;28;20219;-82
2022/11/27 03:43:55;;;;;;;3.28;3.08;;;3.30;99.90;;;;;;5048513;28;20194;-82
2022/11/27 03:46:31;;;;;;;2.63;2.53;;;3.30;99.90;;;;;;5045935;28;20227;-78
2022/11/27 03:49:04;;;;;;;2.90;2.70;;;3.30;99.90;;;;;;5049927;28;20226;-80
2022/11/27 03:51:39;;;;;;;2.85;2.75;;;3.30;99.90;;;;;;5047491;28;20268;-81
2022/11/27 03:54:17;;;;;;;2.90;2.70;;;3.30;99.90;;;;;;5050737;28;20877;-75
2022/11/27 03:56:49;;;;;;;2.92;2.83;;;3.30;99.90;;;;;;5047123;28;20218;-78
2022/11/27 03:59:20;;;;;;;2.45;2.35;;;3.30;99.90;;;;;;5043059;28;20191;-76
2022/11/27 04:01:49;;;;;;;3.00;2.90;;;3.30;99.90;;;;;;5042136;28;20277;-78
2022/11/27 04:04:17;;;;;;;2.90;2.70;;;3.30;99.90;;;;;;5047945;28;20210;-76
2022/11/27 04:06:44;;;;;;;2.83;2.72;;;3.20;99.90;;;;;;5047157;28;20704;-80
2022/11/27 04:09:12;;;;;;;2.90;2.80;;;3.20;99.90;;;;;;5044563;28;20219;-78
2022/11/27 04:11:39;;;;;;;2.65;2.55;;;3.20;99.90;;;;;;5045435;28;20276;-80
2022/11/27 04:14:06;;;;;;;3.15;2.97;;;3.10;99.90;;;;;;5047263;28;20907;-79
2022/11/27 04:16:34;;;;;;;3.15;2.95;;;3.10;99.90;;;;;;5047923;28;20226;-79
2022/11/27 04:19:03;;;;;;;3.00;2.90;;;3.10;99.90;;;;;;5046572;28;20186;-77
2022/11/27 04:21:31;;;;;;;2.85;2.70;;;3.10;99.90;;;;;;5042909;28;20223;-76
2022/11/27 04:23:58;;;;;;;2.80;2.70;;;3.00;99.90;;;;;;5046405;28;20210;-84
2022/11/27 04:26:25;;;;;;;2.70;2.60;;;3.00;99.90;;;;;;5044567;28;20652;-75
2022/11/27 04:28:53;;;;;;;3.08;2.95;;;3.10;99.90;;;;;;5045640;28;20227;-75
2022/11/27 04:31:20;;;;;;;2.70;2.60;;;3.00;99.90;;;;;;5045688;28;20887;-77
2022/11/27 04:33:47;;;;;;;3.00;2.85;;;3.00;99.90;;;;;;5047016;28;20203;-75
2022/11/27 04:36:17;;;;;;;3.00;2.80;;;3.00;99.90;;;;;;5044031;28;20712;-81
2022/11/27 04:38:45;;;;;;;2.88;2.70;;;3.00;99.90;;;;;;5046629;28;20199;-78
2022/11/27 04:41:13;;;;;;;3.17;3.08;;;3.00;99.90;;;;;;5045384;28;20233;-74
2022/11/27 04:43:40;;;;;;;3.03;2.92;;;3.10;99.90;;;;;;5043519;28;20203;-75
2022/11/27 04:46:07;;;;;;;3.00;2.80;;;3.00;99.90;;;;;;5047282;28;20218;-75
2022/11/27 04:48:34;;;;;;;3.28;3.08;;;3.00;99.90;;;;;;5045125;28;20203;-75
2022/11/27 04:51:02;;;;;;;3.10;3.00;;;3.00;99.90;;;;;;5043602;28;20227;-75
2022/11/27 04:53:30;;;;;;;3.03;2.92;;;3.00;99.90;;;;;;5047649;28;20195;-76
2022/11/27 04:55:58;;;;;;;2.75;2.65;;;3.00;99.90;;;;;;5043569;28;20226;-78
2022/11/27 04:58:25;;;;;;;2.70;2.60;;;2.90;99.90;;;;;;5044843;28;20199;-77
2022/11/27 05:00:53;;;;;;;3.20;3.00;;;2.90;99.90;;;;;;5045703;28;20720;-74
2022/11/27 05:03:20;;;;;;;3.08;2.97;;;2.90;99.90;;;;;;5043953;28;20199;-76
2022/11/27 05:05:56;;;;;;;2.78;2.67;;;2.80;99.90;;;;;;5045456;28;20230;-78
2022/11/27 05:08:23;;;;;;;2.80;2.70;;;2.80;99.90;;;;;;5047058;28;20202;-76
2022/11/27 05:11:01;;;;;;;2.97;2.88;;;2.80;99.90;;;;;;5042311;28;20230;-78
2022/11/27 05:13:29;;;;;;;2.95;2.85;;;2.80;99.90;;;;;;5048993;28;20201;-75
2022/11/27 05:15:56;;;;;;;3.33;3.22;;;2.80;99.90;;;;;;5046589;28;20218;-74
2022/11/27 05:18:24;;;;;;;3.28;3.10;;;2.80;99.90;;;;;;5049122;28;20195;-78
2022/11/27 05:20:58;;;;;;;3.10;3.00;;;2.80;99.90;;;;;;5032925;28;20305;-77
2022/11/27 05:23:25;;;;;;;3.33;3.13;;;2.70;99.90;;;;;;5046159;28;20298;-77
2022/11/27 05:25:52;;;;;;;2.80;2.70;;;2.70;99.90;;;;;;5048146;28;20222;-76
2022/11/27 05:28:21;;;;;;;2.85;2.75;;;2.70;99.90;;;;;;5046900;28;20210;-79
2022/11/27 05:30:49;;;;;;;3.10;2.90;;;2.70;99.90;;;;;;5050630;28;20226;-76
2022/11/27 05:33:18;;;;;;;2.92;2.83;;;2.70;99.90;;;;;;5049458;28;20199;-76
2022/11/27 05:35:45;;;;;;;2.95;2.85;;;2.70;99.90;;;;;;5048206;28;20639;-78
2022/11/27 05:38:13;;;;;;;3.13;3.03;;;2.70;99.90;;;;;;5048289;28;20203;-78
2022/11/27 05:40:41;;;;;;;3.22;3.10;;;2.60;99.90;;;;;;5050956;28;20696;-75
2022/11/27 05:43:08;;;;;;;3.20;2.95;;;2.60;99.90;;;;;;5048444;28;20661;-75
2022/11/27 05:45:37;;;;;;;3.33;3.13;;;2.60;99.90;;;;;;5048498;28;20286;-79
2022/11/27 05:48:05;;;;;;;3.78;3.58;;;2.50;99.90;;;;;;5051143;28;20211;-78
2022/11/27 05:50:33;;;;;;;3.08;2.90;;;2.50;99.90;;;;;;5044327;28;20227;-75
2022/11/27 05:53:00;;;;;;;3.15;2.92;;;2.40;99.90;;;;;;5050758;28;20191;-77
2022/11/27 05:55:27;;;;;;;3.20;3.08;;;2.40;99.90;;;;;;5049478;28;20191;-78
2022/11/27 05:57:55;;;;;;;3.03;2.83;;;2.40;99.90;;;;;;5051226;28;20572;-77
2022/11/27 06:00:22;;;;;;;2.70;2.60;;;2.40;99.90;;;;;;5050522;28;20226;-77
2022/11/27 06:02:51;;;;;;;2.72;2.53;;;2.40;99.90;;;;;;5048632;28;20214;-77
2022/11/27 06:05:19;;;;;;;3.45;3.25;;;2.40;99.90;;;;;;5049877;28;20199;-78
2022/11/27 06:07:48;;;;;;;3.10;3.00;;;2.40;99.90;;;;;;5047263;28;20218;-76
2022/11/27 06:10:15;;;;;;;3.47;3.28;;;2.40;99.90;;;;;;5044389;28;20238;-81
2022/11/27 06:12:43;;;;;;;3.00;2.88;;;2.30;99.90;;;;;;5046296;28;20699;-75
2022/11/27 06:15:11;;;;;;;2.85;2.75;;;2.30;99.90;;;;;;5047133;28;20191;-77
2022/11/27 06:17:38;;;;;;;3.30;3.10;;;2.30;99.90;;;;;;5047286;28;20215;-79
2022/11/27 06:20:09;;;;;;;3.10;2.90;;;2.30;99.90;;;;;;5049647;28;20855;-74
2022/11/27 06:22:36;;;;;;;3.13;2.92;;;2.30;99.90;;;;;;5047953;28;20605;-79
2022/11/27 06:25:04;;;;;;;3.10;2.90;;;2.20;99.90;;;;;;5049068;28;20249;-76
2022/11/27 06:27:33;;;;;;;3.40;3.20;;;2.20;99.90;;;;;;5044086;28;20218;-78
2022/11/27 06:30:01;;;;;;;2.90;2.80;;;2.20;99.90;;;;;;5046221;28;20311;-78
2022/11/27 06:32:29;;;;;;;3.38;3.17;;;2.20;99.90;;;;;;5048982;28;20222;-77
2022/11/27 06:34:56;;;;;;;3.33;3.13;;;2.20;99.90;;;;;;5044058;28;20200;-77
2022/11/27 06:37:25;;;;;;;3.28;3.08;;;2.20;99.90;;;;;;5048104;28;20219;-75
2022/11/27 06:39:52;;;;;;;3.55;3.30;;;2.20;99.90;;;;;;5049083;28;20191;-73
2022/11/27 06:42:20;;;;;;;3.53;3.33;;;2.20;99.90;;;;;;5042732;28;20227;-76
2022/11/27 06:44:47;;;;;;;3.33;3.13;;;2.20;99.90;;;;;;5046405;28;20191;-76
2022/11/27 06:47:15;;;;;;;3.38;3.17;;;2.20;99.90;;;;;;5044080;28;20231;-75
2022/11/27 06:49:42;;;;;;;3.83;3.50;;;2.30;99.90;;;;;;5046651;28;20229;-74
2022/11/27 06:52:09;;;;;;;3.70;3.50;;;2.30;99.90;;;;;;5045133;28;20235;-77
2022/11/27 06:54:38;;;;;;;4.85;4.32;;;2.30;99.90;;;;;;5048118;28;20214;-74
2022/11/27 06:57:05;;;;;;;4.05;3.75;;;2.30;99.90;;;;;;5044552;28;20223;-77
2022/11/27 06:59:32;;;;;;;4.28;3.97;;;2.40;99.90;;;;;;5046282;28;20198;-74
2022/11/27 07:02:00;;;;;;;4.15;3.85;;;2.40;99.90;;;;;;5044791;28;20704;-72
2022/11/27 07:04:28;;;;;;;4.25;3.95;;;2.40;99.90;;;;;;5049642;28;20202;-76
2022/11/27 07:06:55;;;;;;;3.90;3.70;;;2.40;99.90;;;;;;5044245;28;21489;-74
2022/11/27 07:09:22;;;;;;;4.10;3.80;;;2.40;99.90;;;;;;5049279;28;20203;-76
2022/11/27 07:11:51;;;;;;;3.33;3.13;;;2.40;99.90;;;;;;5046261;28;20222;-74
2022/11/27 07:14:21;;;;;;;3.63;3.42;;;2.40;99.90;;;;;;5047664;28;20238;-76
2022/11/27 07:16:48;;;;;;;3.83;3.53;;;2.40;99.90;;;;;;5047165;28;20233;-80
2022/11/27 07:19:15;;;;;;;3.50;3.30;;;2.40;99.90;;;;;;5041409;28;20199;-76
2022/11/27 07:21:43;;;;;;;3.78;3.47;;;2.40;99.90;;;;;;5044381;28;20222;-73
2022/11/27 07:24:10;;;;;;;3.67;3.47;;;2.40;99.90;;;;;;5046917;28;20203;-81
2022/11/27 07:26:37;;;;;;;3.55;3.25;;;2.40;99.90;;;;;;5046353;28;20219;-75
2022/11/27 07:29:06;;;;;;;4.03;3.78;;;2.40;99.90;;;;;;5049523;28;20203;-73
2022/11/27 07:31:34;;;;;;;4.03;3.72;;;2.40;99.90;;;;;;5052470;28;20222;-74
2022/11/27 07:34:01;;;;;;;3.95;3.67;;;2.50;99.90;;;;;;5047093;28;20199;-75
2022/11/27 07:36:30;;;;;;;4.18;3.88;;;2.50;99.90;;;;;;5051085;28;20214;-74
2022/11/27 07:38:58;;;;;;;3.83;3.63;;;2.50;99.90;;;;;;5047772;28;20575;-75
2022/11/27 07:41:26;;;;;;;4.03;3.72;;;2.60;99.90;;;;;;5043131;28;20248;-77
2022/11/27 07:43:53;;;;;;;4.75;4.45;;;2.60;99.90;;;;;;5049587;28;20203;-74
2022/11/27 07:46:24;;;;;;;4.68;4.38;;;2.70;99.90;;;;;;5048269;28;20242;-75
2022/11/27 07:48:52;;;;;;;5.57;4.88;;;2.70;99.90;;;;;;5051240;28;20199;-75
2022/11/27 07:51:21;;;;;;;4.88;4.53;;;2.70;99.90;;;;;;5049944;28;20743;-75
2022/11/27 07:53:53;;;;;;;3.83;3.63;;;2.80;99.90;;;;;;5049932;28;20199;-74
2022/11/27 07:56:21;;;;;;;4.13;3.83;;;2.80;99.90;;;;;;5052953;28;20276;-73
2022/11/27 07:58:49;;;;;;;4.20;3.90;;;2.80;99.90;;;;;;5052356;28;20291;-79
2022/11/27 08:01:20;;;;;;;3.65;3.45;;;2.80;99.90;;;;;;5045368;28;20335;-72
2022/11/27 08:03:49;;;;;;;4.10;3.83;;;3.50;99.90;;;;;;5044892;28;20223;-79
2022/11/27 08:06:19;;;;;;;4.05;3.75;;;4.70;99.90;;;;;;5045596;28;20762;-76
2022/11/27 08:08:46;;;;;;;4.32;4.03;;;5.80;99.90;;;;;;5042765;28;20777;-76
2022/11/27 08:11:19;;;;;;;4.80;4.20;;;6.90;99.90;;;;;;5042704;28;20226;-77
2022/11/27 08:13:46;;;;;;;4.20;3.90;;;7.80;99.90;;;;;;5040164;28;20202;-79
2022/11/27 08:16:14;;;;;;;3.60;3.40;;;8.50;99.90;;;;;;5043455;28;20245;-76
2022/11/27 08:18:42;;;;;;;3.92;3.63;;;9.10;99.90;;;;;;5039670;28;20200;-74
2022/11/27 08:21:11;;;;;;;4.43;3.67;;;9.40;99.90;;;;;;5042523;28;20225;-74
2022/11/27 08:23:39;;;;;;;3.30;3.10;;;9.70;99.90;;;;;;5044764;28;20210;-72
2022/11/27 08:26:07;;;;;;;4.47;4.15;;;9.90;99.90;;;;;;5048240;28;20218;-73
2022/11/27 08:28:35;;;;;;;3.97;3.67;;;10.00;99.90;;;;;;5042769;28;20203;-73
2022/11/27 08:31:04;;;;;;;4.72;4.28;;;10.10;99.90;;;;;;5045313;28;20218;-72
2022/11/27 08:33:32;;;;;;;5.00;4.60;;;10.40;99.90;;;;;;5042128;28;20200;-75
2022/11/27 08:35:59;;;;;;;4.28;3.92;;;10.50;99.90;;;;;;5046223;28;20739;-72
2022/11/27 08:38:28;;;;;;;4.78;4.28;;;10.90;99.90;;;;;;5048383;28;20591;-76
2022/11/27 08:40:56;;;;;;;4.15;3.75;;;11.20;99.90;;;;;;5046553;28;20226;-80
2022/11/27 08:43:25;;;;;;;4.28;3.90;;;11.50;99.90;;;;;;5046989;28;20199;-76
2022/11/27 08:45:53;;;;;;;3.47;3.17;;;11.80;99.90;;;;;;5046107;28;20230;-72
2022/11/27 08:48:21;;;;;;;3.33;3.03;;;11.90;99.90;;;;;;5050506;28;20199;-74
2022/11/27 08:50:49;;;;;;;3.70;3.40;;;12.10;99.90;;;;;;5047348;28;20235;-76
2022/11/27 08:53:17;;;;;;;3.83;3.30;;;12.30;99.90;;;;;;5047716;28;20580;-74
2022/11/27 08:55:46;;;;;;;3.33;3.03;;;12.40;99.90;;;;;;5052727;28;20205;-79
2022/11/27 08:58:13;;;;;;;3.55;3.00;;;12.50;99.90;;;;;;5049271;28;20203;-74
2022/11/27 09:00:41;;;;;;;4.47;2.97;;;12.30;99.90;;;;;;5049217;28;20222;-74
2022/11/27 09:03:11;;;;;;;2.72;2.53;;;12.80;99.90;;;;;;5044410;28;20195;-76
2022/11/27 09:05:42;;;;;;;2.45;2.25;;;13.60;99.90;;;;;;5047974;28;20210;-78
2022/11/27 09:08:12;;;;;;;3.72;2.70;;;14.60;97.40;;;;;;5047815;28;20253;-75
2022/11/27 09:10:40;;;;;;;2.67;2.47;;;15.90;94.50;;;;;;5048868;28;20225;-79
2022/11/27 09:13:09;;;;;;;2.72;2.53;;;17.80;91.70;;;;;;5049947;28;20932;-78
2022/11/27 09:15:36;;;;;;;2.60;2.40;;;19.10;81.80;;;;;;5046420;28;20222;-81
2022/11/27 09:18:03;;;;;;;4.40;2.40;;;20.10;76.60;;;;;;5048078;28;20285;-78
2022/11/27 09:20:31;;;;;;;2.35;2.15;;;20.70;73.10;;;;;;5045937;28;20735;-80
2022/11/27 09:23:01;;;;;;;2.80;2.60;;;21.50;69.40;;;;;;5048601;28;20192;-78
2022/11/27 09:25:28;;;;;;;3.33;2.45;;;21.70;65.70;;;;;;5051714;28;20652;-75
2022/11/27 09:27:55;;;;;;;2.25;1.90;;;21.50;64.00;;;;;;5046510;28;20683;-75
2022/11/27 09:30:24;;;;;;;2.50;2.30;;;21.50;63.40;;;;;;5046805;28;20219;-76
2022/11/27 09:32:53;;;;;;;2.53;2.33;;;21.20;63.80;;;;;;5051279;28;20225;-78
2022/11/27 09:35:20;;;;;;;2.28;2.15;;;21.10;63.50;;;;;;5046360;28;20245;-77
2022/11/27 09:37:47;;;;;;;3.17;2.28;;;20.30;64.10;;;;;;5045736;28;20215;-78
2022/11/27 09:40:16;;;;;;;3.17;2.33;;;19.60;65.70;;;;;;5047715;28;20702;-74
2022/11/27 09:42:50;;;;;;;2.20;1.90;;;18.10;68.40;;;;;;5046726;28;20223;-76
2022/11/27 09:45:18;;;;;;;3.22;2.20;;;17.10;72.40;;;;;;5048544;28;20191;-75
2022/11/27 09:47:53;;;;;;;3.08;2.60;;;16.20;75.20;;;;;;5041877;28;20222;-74
2022/11/27 09:50:24;;;;;;;2.55;2.35;;;15.30;77.60;;;;;;5046336;28;20218;-73
2022/11/27 09:52:57;;;;;;;3.15;2.60;;;14.40;81.30;;;;;;5048419;28;20221;-77
2022/11/27 09:55:26;;;;;;;2.72;2.53;;;13.90;84.40;;;;;;5047109;28;20203;-75
2022/11/27 09:57:59;;;;;;;2.67;2.47;;;13.60;85.60;;;;;;5050374;28;20571;-77
2022/11/27 10:00:27;;;;;;;2.40;2.17;;;13.30;87.80;;;;;;5049809;28;20247;-76
2022/11/27 10:02:56;;;;;;;2.72;2.53;;;13.30;90.00;;;;;;5048213;28;20676;-76
2022/11/27 10:05:25;;;;;;;3.92;2.88;;;13.40;90.30;;;;;;5049746;28;20201;-76
2022/11/27 10:08:16;;;;;;;4.07;2.80;;;13.60;90.90;;;;;;5049230;28;20239;-73
2022/11/27 10:10:56;;;;;;;3.42;2.70;;;13.60;91.70;;;;;;5046700;28;20868;-74
2022/11/27 10:13:40;;;;;;;3.38;2.88;;;13.70;92.00;;;;;;5052491;28;20201;-75
2022/11/27 10:16:19;;;;;;;2.75;2.55;;;13.80;92.20;;;;;;5047659;28;20215;-76
2022/11/27 10:18:54;;;;;;;3.47;3.17;;;13.60;92.50;;;;;;5046892;28;20199;-75
2022/11/27 10:21:43;;;;;;;3.15;2.78;;;13.60;92.50;;;;;;5046902;28;20706;-76
2022/11/27 10:24:19;;;;;;;3.25;2.60;;;13.60;92.30;;;;;;5053331;28;20563;-75
2022/11/27 10:26:49;;;;;;;2.72;2.53;;;13.70;92.10;;;;;;5046666;28;20218;-73
2022/11/27 10:29:31;;;;;;;2.78;2.58;;;13.80;91.50;;;;;;5046101;28;20191;-76
2022/11/27 10:32:04;;;;;;;2.85;2.60;;;13.60;91.50;;;;;;5044564;28;20264;-73
2022/11/27 10:34:39;;;;;;;3.20;2.92;;;13.60;91.60;;;;;;5050250;28;20195;-73
2022/11/27 10:37:14;;;;;;;3.35;2.92;;;13.50;91.30;;;;;;5047518;28;20243;-77
2022/11/27 10:39:46;;;;;;;3.28;2.97;;;13.80;91.40;;;;;;5048908;28;20229;-76
2022/11/27 10:42:19;;;;;;;3.13;2.70;;;13.70;90.30;;;;;;5049599;28;20222;-76
2022/11/27 10:44:52;;;;;;;2.90;2.60;;;13.40;90.90;;;;;;5050854;28;20206;-73
2022/11/27 10:47:23;;;;;;;2.55;2.35;;;13.10;90.70;;;;;;5046028;28;20238;-74
2022/11/27 10:49:53;;;;;;;2.70;2.50;;;12.90;90.80;;;;;;5046746;28;20206;-75
2022/11/27 10:52:21;;;;;;;2.90;2.70;;;12.70;90.40;;;;;;5045868;28;20219;-78
2022/11/27 10:54:55;;;;;;;2.50;2.30;;;12.90;90.80;;;;;;5045761;28;20615;-76
2022/11/27 10:57:53;;;;;;;2.53;2.33;;;13.00;90.90;;;;;;5045629;28;20237;-74
2022/11/27 11:00:23;;;;;;;2.35;2.20;;;12.70;89.30;;;;;;5043352;28;20223;-77
2022/11/27 11:03:00;;;;;;;2.13;2.03;;;12.80;91.30;;;;;;5047497;28;20657;-75
2022/11/27 11:05:30;;;;;;;3.22;2.63;;;13.40;91.00;;;;;;5051971;28;20195;-75
2022/11/27 11:08:03;;;;;;;2.28;2.08;;;13.00;89.70;;;;;;5046258;28;20202;-74
2022/11/27 11:10:34;;;;;;;2.55;2.40;;;12.90;90.50;;;;;;5046588;28;20304;-73
2022/11/27 11:13:06;;;;;;;2.17;2.08;;;13.10;90.50;;;;;;5048422;28;20197;-76
2022/11/27 11:15:50;;;;;;;2.78;2.58;;;13.40;90.20;;;;;;5047090;28;20199;-72
2022/11/27 11:18:23;;;;;;;3.50;2.30;;;13.60;90.30;;;;;;5050648;28;20202;-76
2022/11/27 11:20:54;;;;;;;2.40;2.22;;;13.50;88.60;;;;;;5047423;28;20219;-73
2022/11/27 11:23:27;;;;;;;2.72;2.53;;;13.30;89.90;;;;;;5051820;28;20324;-75
2022/11/27 11:25:58;;;;;;;2.55;2.28;;;13.00;90.20;;;;;;5051948;28;20214;-77
2022/11/27 11:28:26;;;;;;;3.65;2.60;;;12.90;90.40;;;;;;5048770;28;20230;-77
2022/11/27 11:30:57;;;;;;;2.30;2.20;;;12.80;90.60;;;;;;5046483;28;20224;-75
2022/11/27 11:33:26;;;;;;;3.05;2.75;;;12.80;90.90;;;;;;5049385;28;21473;-73
2022/11/27 11:36:08;;;;;;;4.30;3.90;;;13.00;91.20;;;;;;5047068;28;20223;-76
2022/11/27 11:38:37;;;;;;;2.92;2.72;;;12.90;90.80;;;;;;5048826;28;20717;-75
2022/11/27 11:41:08;;;;;;;2.78;2.58;;;12.80;90.40;;;;;;5045387;28;20349;-75
2022/11/27 11:43:40;;;;;;;2.60;2.40;;;13.00;90.60;;;;;;5046375;28;20194;-78
2022/11/27 11:46:18;;;;;;;2.60;2.40;;;13.10;90.40;;;;;;5045848;28;20306;-75
2022/11/27 11:48:55;;;;;;;2.50;2.30;;;13.20;90.40;;;;;;5050187;28;20726;-77
2022/11/27 11:51:32;;;;;;;2.42;2.30;;;13.40;89.00;;;;;;5049269;28;20590;-77
2022/11/27 11:54:11;;;;;;;2.70;2.50;;;13.60;89.00;;;;;;5044935;28;20583;-77
2022/11/27 11:56:43;;;;;;;2.38;2.25;;;13.70;89.80;;;;;;5048683;28;20271;-77
2022/11/27 11:59:20;;;;;;;2.65;2.45;;;13.60;90.00;;;;;;5046786;28;20191;-76
2022/11/27 12:02:26;;;;;;;2.92;2.60;;;13.60;89.80;;;;;;5042108;28;20222;-76
2022/11/27 12:05:12;;;;;;;2.20;2.05;;;13.50;88.60;;;;;;5050346;28;20840;-75
2022/11/27 12:07:54;;;;;;;4.13;2.20;;;13.30;88.30;;;;;;5050023;28;20214;-79
2022/11/27 12:10:27;;;;;;;2.10;2.00;;;13.40;88.10;;;;;;5048140;28;20215;-77
2022/11/27 12:13:05;;;;;;;2.05;1.95;;;13.30;89.60;;;;;;5048837;28;20571;-74
2022/11/27 12:15:36;;;;;;;2.33;2.13;;;13.30;89.40;;;;;;5048394;28;20206;-75
2022/11/27 12:18:14;;;;;;;2.15;1.95;;;13.10;88.40;;;;;;5046385;28;20195;-75
2022/11/27 12:20:53;;;;;;;2.40;2.20;;;13.20;89.00;;;;;;5058858;28;20227;-75
2022/11/27 12:23:45;;;;;;;1.90;1.80;;;13.10;89.10;;;;;;5050146;28;20206;-76
2022/11/27 12:26:22;;;;;;;2.45;2.35;;;13.40;88.90;;;;;;5047064;28;20219;-75
2022/11/27 12:29:16;;;;;;;2.13;2.00;;;13.40;88.90;;;;;;5045514;28;20198;-75
2022/11/27 12:32:00;;;;;;;2.22;2.10;;;13.50;88.20;;;;;;5044522;28;20222;-77
2022/11/27 12:34:39;;;;;;;2.35;2.22;;;13.50;88.70;;;;;;5045096;28;20195;-80
2022/11/27 12:37:22;;;;;;;2.50;2.30;;;13.50;87.60;;;;;;5047524;28;20372;-77
2022/11/27 12:40:03;;;;;;;2.50;2.30;;;13.30;87.80;;;;;;5047856;28;20643;-77
2022/11/27 12:42:38;;;;;;;2.55;2.35;;;12.90;89.00;;;;;;5040377;28;20214;-77
2022/11/27 12:45:15;;;;;;;2.25;2.15;;;12.80;90.10;;;;;;5044567;28;20195;-75
2022/11/27 12:47:45;;;;;;;2.22;2.00;;;13.00;90.30;;;;;;5052017;28;20241;-76
2022/11/27 12:50:22;;;;;;;2.42;2.22;;;13.10;90.20;;;;;;5053128;28;20203;-74
2022/11/27 12:52:57;;;;;;;2.75;2.42;;;13.10;90.00;;;;;;5051183;28;20261;-76
2022/11/27 12:55:31;;;;;;;2.17;1.98;;;12.90;89.10;;;;;;5051066;28;20199;-75
2022/11/27 12:58:03;;;;;;;2.50;2.33;;;12.70;90.10;;;;;;5043995;28;20215;-74
2022/11/27 13:00:33;;;;;;;2.42;2.30;;;12.60;90.40;;;;;;5045112;28;20314;-74
2022/11/27 13:03:07;;;;;;;2.40;2.20;;;12.70;90.60;;;;;;5047884;28;20260;-75
2022/11/27 13:05:40;;;;;;;2.55;2.35;;;12.70;90.30;;;;;;5048442;28;20194;-77
2022/11/27 13:08:14;;;;;;;2.80;2.05;;;12.40;90.40;;;;;;5047911;28;20211;-75
2022/11/27 13:10:47;;;;;;;2.40;2.20;;;12.30;91.20;;;;;;5050280;28;20223;-79